Time;durP1;ratioP1;P1;durP2;ratioP2;P2;SDS_P1;SDS_P2;PMS_P1;PMS_P2;Temp;Humidity;BMP_temperature;BMP_pressure;BME280_temperature;BME280_humidity;BME280_pressure;Samples;Min_cycle;Max_cycle;Signal;HPM_P1;HPM_P2
2021/11/16 00:00:13;;;;;;;12.28;5.20;;;;;;;-3.61;100.00;103326.58;1645541;87;21135;-83
2021/11/16 00:02:41;;;;;;;10.15;4.85;;;;;;;-3.68;100.00;103330.09;1645331;87;21083;-83
2021/11/16 00:05:08;;;;;;;16.52;5.85;;;;;;;-3.71;100.00;103323.67;1645393;87;21012;-83
2021/11/16 00:07:34;;;;;;;12.23;4.87;;;;;;;-3.71;100.00;103324.15;1645350;86;21539;-83
2021/11/16 00:10:00;;;;;;;12.18;5.03;;;;;;;-3.75;100.00;103330.57;1645361;87;21137;-85
2021/11/16 00:12:26;;;;;;;12.28;5.22;;;;;;;-3.79;100.00;103325.14;1645386;87;21100;-83
2021/11/16 00:14:53;;;;;;;9.80;5.15;;;;;;;-3.85;100.00;103317.59;1648856;87;21252;-83
2021/11/16 00:17:19;;;;;;;10.93;5.40;;;;;;;-3.86;100.00;103323.34;1613470;88;21094;-83
2021/11/16 00:19:48;;;;;;;13.03;5.35;;;;;;;-3.87;100.00;103320.81;1591613;89;20940;-85
2021/11/16 00:22:18;;;;;;;12.58;4.95;;;;;;;-3.93;100.00;103320.73;1613305;88;21075;-82
2021/11/16 00:24:55;;;;;;;11.25;4.75;;;;;;;-3.97;100.00;103328.44;1613483;88;21106;-83
2021/11/16 00:27:08;;;;;;;8.45;4.08;;;;;;;-4.00;100.00;103324.23;1614023;88;21552;-85
2021/11/16 00:29:36;;;;;;;12.43;4.33;;;;;;;-3.98;100.00;103329.39;1645354;87;21084;-83
2021/11/16 00:32:05;;;;;;;12.75;4.90;;;;;;;-3.97;100.00;103334.58;1597236;89;21052;-83
2021/11/16 00:34:30;;;;;;;12.05;5.08;;;;;;;-3.95;100.00;103330.03;1595284;89;21072;-85
2021/11/16 00:36:56;;;;;;;12.95;5.65;;;;;;;-3.94;100.00;103334.38;1595618;89;21070;-83
2021/11/16 00:39:22;;;;;;;13.38;6.33;;;;;;;-3.93;100.00;103338.70;1595636;89;20940;-83
2021/11/16 00:41:49;;;;;;;15.45;6.50;;;;;;;-3.95;100.00;103337.94;1595581;90;20944;-83
2021/11/16 00:44:16;;;;;;;18.45;6.08;;;;;;;-3.90;100.00;103331.08;1595357;89;21147;-83
2021/11/16 00:46:42;;;;;;;17.87;6.75;;;;;;;-3.89;100.00;103338.02;1595482;88;21166;-83
2021/11/16 00:49:08;;;;;;;24.72;8.58;;;;;;;-3.89;100.00;103344.61;1553113;91;21724;-83
2021/11/16 00:51:35;;;;;;;20.27;8.48;;;;;;;-3.90;100.00;103339.81;1567248;90;21112;-83
2021/11/16 00:54:01;;;;;;;23.85;8.90;;;;;;;-3.88;100.00;103338.41;1567279;90;21072;-85
2021/11/16 00:56:27;;;;;;;24.52;9.98;;;;;;;-3.93;100.00;103336.06;1558893;90;21565;-83
2021/11/16 00:58:53;;;;;;;22.13;9.05;;;;;;;-3.95;100.00;103338.41;1567168;91;21159;-83
2021/11/16 01:01:19;;;;;;;26.35;9.78;;;;;;;-3.96;100.00;103340.68;1567265;90;21004;-83
2021/11/16 01:03:45;;;;;;;22.60;9.15;;;;;;;-3.98;100.00;103347.82;1567162;90;21172;-83
2021/11/16 01:06:11;;;;;;;28.42;11.45;;;;;;;-4.02;100.00;103348.97;1567450;90;21091;-83
2021/11/16 01:08:37;;;;;;;23.87;10.10;;;;;;;-4.02;100.00;103339.75;1561447;90;21048;-83
2021/11/16 01:11:06;;;;;;;23.15;9.70;;;;;;;-4.03;100.00;103329.69;1574264;89;21121;-83
2021/11/16 01:13:32;;;;;;;26.65;9.45;;;;;;;-4.01;100.00;103345.38;1580439;89;21007;-85
2021/11/16 01:15:58;;;;;;;25.55;10.20;;;;;;;-4.02;100.00;103337.95;1580601;90;20963;-82
2021/11/16 01:18:28;;;;;;;24.52;9.28;;;;;;;-4.04;100.00;103335.88;1572740;89;20996;-83
2021/11/16 01:20:54;;;;;;;33.53;12.60;;;;;;;-4.05;100.00;103331.56;1595261;88;20997;-83
2021/11/16 01:23:22;;;;;;;36.10;12.93;;;;;;;-4.05;100.00;103338.63;1595210;89;21960;-85
2021/11/16 01:25:49;;;;;;;34.03;12.23;;;;;;;-4.08;100.00;103349.35;1595039;89;21009;-83
2021/11/16 01:28:22;;;;;;;36.93;12.70;;;;;;;-4.08;100.00;103347.56;1594874;89;21028;-85
2021/11/16 01:30:50;;;;;;;34.90;13.10;;;;;;;-4.08;100.00;103338.34;1595378;89;21603;-82
2021/11/16 01:33:26;;;;;;;36.93;12.30;;;;;;;-4.07;100.00;103336.55;1594887;88;21028;-82
2021/11/16 01:35:48;;;;;;;28.32;10.85;;;;;;;-4.10;100.00;103338.90;1595298;89;21071;-83
2021/11/16 01:38:16;;;;;;;27.98;12.35;;;;;;;-4.15;100.00;103347.55;1595259;89;21132;-82
2021/11/16 01:40:44;;;;;;;28.27;12.00;;;;;;;-4.19;100.00;103340.31;1595044;90;21076;-83
2021/11/16 01:43:10;;;;;;;26.57;11.25;;;;;;;-4.22;100.00;103342.30;1595349;89;21078;-83
2021/11/16 01:45:40;;;;;;;28.73;11.05;;;;;;;-4.30;100.00;103338.80;1594996;89;21096;-83
2021/11/16 01:48:09;;;;;;;35.03;11.78;;;;;;;-4.37;100.00;103337.03;1622931;86;22033;-83
2021/11/16 01:50:37;;;;;;;34.13;12.43;;;;;;;-4.42;100.00;103331.67;1645235;87;21009;-83
2021/11/16 01:53:03;;;;;;;29.27;11.88;;;;;;;-4.51;100.00;103330.44;1645390;86;21009;-83
2021/11/16 01:55:29;;;;;;;23.00;8.33;;;;;;;-4.60;100.00;103327.89;1645523;86;21007;-83
2021/11/16 01:57:57;;;;;;;17.27;8.05;;;;;;;-4.62;100.00;103336.38;1613503;88;20980;-83
2021/11/16 02:00:34;;;;;;;14.83;6.67;;;;;;;-4.65;100.00;103341.78;1613991;88;21129;-83
2021/11/16 02:03:01;;;;;;;15.72;6.58;;;;;;;-4.65;100.00;103336.52;1613912;88;21047;-83
2021/11/16 02:05:53;;;;;;;15.88;6.03;;;;;;;-4.63;100.00;103332.03;1595866;89;21524;-83
2021/11/16 02:08:21;;;;;;;12.00;5.50;;;;;;;-4.60;100.00;103323.11;1574697;88;21062;-83
2021/11/16 02:10:51;;;;;;;14.33;5.85;;;;;;;-4.61;100.00;103329.31;1562541;91;21087;-83
2021/11/16 02:13:20;;;;;;;17.62;6.53;;;;;;;-4.63;100.00;103327.24;1575272;89;21121;-83
2021/11/16 02:15:46;;;;;;;14.00;5.70;;;;;;;-4.63;100.00;103335.13;1574957;89;21569;-83
2021/11/16 02:18:14;;;;;;;15.05;6.17;;;;;;;-4.61;100.00;103331.95;1570316;91;21027;-83
2021/11/16 02:20:44;;;;;;;14.15;5.95;;;;;;;-4.63;100.00;103324.13;1575368;89;21173;-83
2021/11/16 02:23:10;;;;;;;12.55;5.90;;;;;;;-4.64;100.00;103322.92;1575366;89;21068;-83
2021/11/16 02:25:37;;;;;;;11.43;5.22;;;;;;;-4.62;100.00;103327.60;1575031;91;21112;-84
2021/11/16 02:28:04;;;;;;;9.43;4.75;;;;;;;-4.62;100.00;103330.23;1575363;89;21434;-83
2021/11/16 02:30:30;;;;;;;14.75;4.90;;;;;;;-4.63;100.00;103325.92;1575378;89;21127;-83
2021/11/16 02:32:56;;;;;;;11.57;4.95;;;;;;;-4.65;100.00;103324.69;1575480;90;20898;-83
2021/11/16 02:35:25;;;;;;;9.03;4.20;;;;;;;-4.67;100.00;103326.58;1575392;89;20981;-83
2021/11/16 02:37:53;;;;;;;11.53;5.30;;;;;;;-4.68;100.00;103334.55;1575138;89;21181;-83
2021/11/16 02:40:20;;;;;;;10.50;4.53;;;;;;;-4.69;100.00;103335.50;1575134;89;21360;-83
2021/11/16 02:42:46;;;;;;;10.08;4.40;;;;;;;-4.70;100.00;103329.88;1575401;89;21004;-83
2021/11/16 02:45:15;;;;;;;10.85;4.78;;;;;;;-4.74;100.00;103327.03;1575417;89;21072;-83
2021/11/16 02:47:41;;;;;;;10.60;5.10;;;;;;;-4.75;100.00;103322.25;1579296;88;21126;-83
2021/11/16 02:50:09;;;;;;;13.05;4.70;;;;;;;-4.77;100.00;103329.37;1619173;86;21107;-83
2021/11/16 02:52:36;;;;;;;9.13;4.37;;;;;;;-4.83;100.00;103329.73;1618946;86;21064;-83
2021/11/16 02:55:04;;;;;;;11.12;4.33;;;;;;;-4.91;100.00;103331.53;1619109;87;21111;-83
2021/11/16 02:57:30;;;;;;;8.53;3.95;;;;;;;-4.90;100.00;103326.63;1619158;86;21092;-83
2021/11/16 02:59:56;;;;;;;10.90;4.67;;;;;;;-4.91;100.00;103324.95;1615663;86;20917;-83
2021/11/16 03:02:23;;;;;;;10.53;4.70;;;;;;;-4.92;100.00;103328.97;1619126;86;21826;-83
2021/11/16 03:04:49;;;;;;;10.08;4.87;;;;;;;-4.95;100.00;103328.68;1638405;86;21007;-83
2021/11/16 03:07:31;;;;;;;9.60;4.65;;;;;;;-4.98;100.00;103324.08;1652785;86;21016;-83
2021/11/16 03:09:58;;;;;;;11.93;4.70;;;;;;;-5.05;100.00;103329.70;1652474;86;20992;-82
2021/11/16 03:12:30;;;;;;;8.88;4.40;;;;;;;-5.10;100.00;103330.42;1652929;86;20981;-82
2021/11/16 03:14:58;;;;;;;10.65;4.30;;;;;;;-5.15;100.00;103328.52;1583798;89;21255;-82
2021/11/16 03:17:25;;;;;;;9.70;4.30;;;;;;;-5.14;100.00;103325.45;1583689;89;21089;-83
2021/11/16 03:19:52;;;;;;;10.43;4.87;;;;;;;-5.14;100.00;103329.39;1583768;89;21104;-82
2021/11/16 03:22:18;;;;;;;9.80;4.90;;;;;;;-5.15;100.00;103335.09;1583736;89;21053;-82
2021/11/16 03:24:46;;;;;;;10.60;5.15;;;;;;;-5.15;100.00;103332.47;1583783;89;21064;-82
2021/11/16 03:27:15;;;;;;;9.48;4.65;;;;;;;-5.22;100.00;103332.45;1583564;89;21871;-82
2021/11/16 03:29:55;;;;;;;10.20;4.17;;;;;;;-5.21;100.00;103328.04;1583372;89;21059;-82
2021/11/16 03:32:19;;;;;;;11.63;4.60;;;;;;;-5.21;100.00;103333.30;1583349;89;22803;-82
2021/11/16 03:34:48;;;;;;;9.80;4.85;;;;;;;-5.30;100.00;103330.25;1583555;89;21629;-82
2021/11/16 03:37:19;;;;;;;14.60;4.97;;;;;;;-5.35;100.00;103332.80;1583508;89;21053;-82
2021/11/16 03:39:46;;;;;;;10.80;4.78;;;;;;;-5.37;100.00;103330.23;1583379;89;39244;-82
2021/11/16 03:42:13;;;;;;;11.60;4.78;;;;;;;-5.37;100.00;103334.66;1583500;89;21085;-82
2021/11/16 03:44:39;;;;;;;12.80;5.80;;;;;;;-5.38;100.00;103340.38;1583324;89;21073;-82
2021/11/16 03:47:06;;;;;;;20.37;7.95;;;;;;;-5.45;100.00;103331.13;1583486;89;21126;-82
2021/11/16 03:49:32;;;;;;;21.50;8.43;;;;;;;-5.46;100.00;103339.96;1589224;89;21040;-82
2021/11/16 03:51:58;;;;;;;29.55;10.85;;;;;;;-5.46;100.00;103331.23;1587805;89;22011;-82
2021/11/16 03:54:24;;;;;;;58.73;20.08;;;;;;;-5.48;100.00;103328.69;1587876;89;21056;-82
2021/11/16 03:56:51;;;;;;;69.70;25.70;;;;;;;-5.50;100.00;103337.98;1587999;89;21117;-82
2021/11/16 03:59:17;;;;;;;59.93;21.05;;;;;;;-5.50;100.00;103332.73;1587654;89;21442;-82
2021/11/16 04:01:43;;;;;;;57.33;19.50;;;;;;;-5.49;100.00;103327.84;1587941;89;21057;-82
2021/11/16 04:04:11;;;;;;;64.07;20.75;;;;;;;-5.48;100.00;103332.16;1588095;89;21146;-82
2021/11/16 04:06:36;;;;;;;92.37;27.87;;;;;;;-5.49;100.00;103330.47;1587592;89;21053;-82
2021/11/16 04:09:03;;;;;;;70.83;22.80;;;;;;;-5.50;100.00;103331.41;1588260;89;21043;-82
2021/11/16 04:11:30;;;;;;;63.45;20.55;;;;;;;-5.52;100.00;103329.33;1616776;85;21015;-82
2021/11/16 04:13:56;;;;;;;102.65;28.98;;;;;;;-5.50;100.00;103336.66;1657484;85;21651;-82
2021/11/16 04:16:22;;;;;;;148.45;39.95;;;;;;;-5.48;100.00;103333.94;1630834;86;21152;-82
2021/11/16 04:18:50;;;;;;;108.95;31.02;;;;;;;-5.46;100.00;103324.67;1661594;85;21106;-82
2021/11/16 04:21:16;;;;;;;113.45;31.62;;;;;;;-5.44;100.00;103341.17;1661762;86;21380;-82
2021/11/16 04:23:43;;;;;;;72.65;22.13;;;;;;;-5.51;100.00;103332.33;1661921;86;21025;-82
2021/11/16 04:26:10;;;;;;;70.30;21.07;;;;;;;-5.53;100.00;103334.22;1661485;86;21040;-81
2021/11/16 04:28:37;;;;;;;50.05;17.48;;;;;;;-5.52;100.00;103331.95;1630810;86;21135;-82
2021/11/16 04:31:04;;;;;;;44.65;14.43;;;;;;;-5.51;100.00;103334.95;1661752;86;20969;-82
2021/11/16 04:33:30;;;;;;;33.13;12.07;;;;;;;-5.52;100.00;103335.89;1661961;85;21523;-82
2021/11/16 04:35:56;;;;;;;24.05;9.65;;;;;;;-5.51;100.00;103334.95;1606793;88;21104;-82
2021/11/16 04:38:24;;;;;;;23.05;8.60;;;;;;;-5.51;100.00;103332.33;1628096;87;21074;-82
2021/11/16 04:40:54;;;;;;;19.07;7.65;;;;;;;-5.54;100.00;103332.50;1627009;87;21143;-82
2021/11/16 04:43:25;;;;;;;19.48;7.72;;;;;;;-5.57;100.00;103337.92;1662077;85;21058;-82
2021/11/16 04:45:55;;;;;;;25.82;9.75;;;;;;;-5.55;100.00;103345.73;1661213;86;21049;-81
2021/11/16 04:54:11;;;;;;;61.55;17.15;;;;;;;-5.52;100.00;103342.47;1645041;86;21099;-82
2021/11/16 05:04:33;;;;;;;28.92;9.95;;;;;;;-5.50;100.00;103353.74;1645047;87;21120;-84
2021/11/16 05:07:00;;;;;;;25.05;9.65;;;;;;;-5.50;100.00;103360.31;1645318;86;21101;-84
2021/11/16 05:09:26;;;;;;;23.55;9.53;;;;;;;-5.47;100.00;103369.80;1644939;87;21414;-84
2021/11/16 05:11:54;;;;;;;22.67;8.65;;;;;;;-5.44;100.00;103361.75;1645387;87;21004;-84
2021/11/16 05:14:20;;;;;;;19.42;7.90;;;;;;;-5.42;100.00;103359.02;1644956;87;21052;-84
2021/11/16 05:16:46;;;;;;;19.27;7.85;;;;;;;-5.39;100.00;103369.35;1644846;86;21154;-84
2021/11/16 05:19:12;;;;;;;17.50;7.20;;;;;;;-5.36;100.00;103362.61;1645330;85;21837;-84
2021/11/16 05:21:38;;;;;;;19.27;7.20;;;;;;;-5.30;100.00;103360.95;1645218;87;27135;-84
2021/11/16 05:24:04;;;;;;;15.23;7.72;;;;;;;-5.24;100.00;103360.59;1645351;87;21016;-84
2021/11/16 05:26:30;;;;;;;18.98;8.35;;;;;;;-5.17;100.00;103365.90;1645334;87;20976;-84
2021/11/16 05:28:59;;;;;;;17.67;6.75;;;;;;;-4.99;100.00;103369.72;1645346;87;21504;-84
2021/11/16 05:31:26;;;;;;;19.55;7.37;;;;;;;-4.76;100.00;103375.80;1645312;87;21995;-84
2021/11/16 05:33:54;;;;;;;18.52;7.20;;;;;;;-4.35;100.00;103375.95;1645353;87;20997;-85
2021/11/16 05:36:21;;;;;;;24.37;8.15;;;;;;;-3.95;100.00;103383.19;1645429;87;21040;-85
2021/11/16 05:38:48;;;;;;;22.75;8.15;;;;;;;-3.56;100.00;103377.21;1645604;86;21464;-85
2021/11/16 05:41:18;;;;;;;35.55;13.93;;;;;;;-3.32;100.00;103380.53;1645454;86;21460;-85
2021/11/16 05:43:45;;;;;;;37.48;13.65;;;;;;;-2.55;100.00;103386.84;1574687;89;21181;-85
2021/11/16 05:46:15;;;;;;;26.75;11.48;;;;;;;-1.98;100.00;103384.23;1591134;89;21101;-85
2021/11/16 05:48:45;;;;;;;30.52;11.05;;;;;;;-1.57;100.00;103391.84;1589605;90;21116;-85
2021/11/16 05:51:11;;;;;;;31.42;10.35;;;;;;;-0.47;100.00;103384.14;1586786;89;21136;-83
2021/11/16 05:53:40;;;;;;;24.75;9.25;;;;;;;0.74;100.00;103375.00;1586937;89;21057;-83
2021/11/16 05:56:05;;;;;;;31.10;9.98;;;;;;;1.69;100.00;103382.45;1604295;88;21101;-83
2021/11/16 05:58:31;;;;;;;33.53;9.25;;;;;;;2.46;100.00;103389.03;1577985;89;21020;-83
2021/11/16 06:00:57;;;;;;;20.82;8.48;;;;;;;3.57;100.00;103385.10;1578234;89;20922;-84
2021/11/16 06:03:24;;;;;;;19.02;8.05;;;;;;;4.73;100.00;103386.34;1578351;89;21061;-84
2021/11/16 06:05:50;;;;;;;20.82;7.90;;;;;;;5.30;100.00;103398.89;1578296;89;21116;-84
2021/11/16 06:08:22;;;;;;;18.05;8.38;;;;;;;5.26;100.00;103394.84;1578259;89;21851;-84
2021/11/16 06:10:49;;;;;;;27.65;9.23;;;;;;;5.82;100.00;103392.20;1561897;91;21124;-85
2021/11/16 06:13:15;;;;;;;21.35;8.48;;;;;;;6.50;94.07;103391.84;1587939;89;21606;-86
2021/11/16 06:15:41;;;;;;;15.85;7.80;;;;;;;7.24;89.42;103398.15;1587899;90;21204;-86
2021/11/16 06:18:07;;;;;;;18.77;7.72;;;;;;;8.13;93.44;103401.13;1588032;89;21131;-86
2021/11/16 06:20:34;;;;;;;13.98;6.50;;;;;;;9.42;78.93;103384.83;1587958;90;21889;-86
2021/11/16 06:23:00;;;;;;;20.75;6.97;;;;;;;9.70;64.20;103383.69;1587824;89;21106;-86
2021/11/16 06:25:25;;;;;;;17.57;7.12;;;;;;;10.19;61.14;103390.37;1587921;89;21105;-86
2021/11/16 06:27:51;;;;;;;17.35;8.08;;;;;;;11.37;63.04;103387.75;1587920;89;21626;-86
2021/11/16 06:30:17;;;;;;;17.87;8.35;;;;;;;12.33;56.99;103388.44;1587831;90;20930;-86
2021/11/16 06:32:44;;;;;;;18.87;8.88;;;;;;;12.78;51.72;103375.22;1588042;90;21136;-86
2021/11/16 06:35:21;;;;;;;26.02;10.28;;;;;;;13.06;51.97;103375.02;1587896;90;21111;-86
2021/11/16 06:37:48;;;;;;;24.10;9.03;;;;;;;13.85;50.94;103374.11;1587871;89;21118;-86
2021/11/16 06:40:16;;;;;;;15.03;6.53;;;;;;;15.03;47.83;103372.37;1589698;88;21639;-86
2021/11/16 06:42:43;;;;;;;14.25;6.22;;;;;;;14.98;43.60;103363.52;1605309;89;21683;-87
2021/11/16 06:45:10;;;;;;;12.47;6.10;;;;;;;14.71;42.57;103362.89;1577384;90;21162;-86
2021/11/16 06:47:36;;;;;;;20.23;7.83;;;;;;;15.16;42.68;103377.68;1578397;90;21064;-87
2021/11/16 06:50:04;;;;;;;12.88;7.28;;;;;;;15.79;42.15;103373.11;1604194;88;21735;-87
2021/11/16 06:52:35;;;;;;;15.63;8.43;;;;;;;16.53;41.99;103371.97;1562528;90;21077;-87
2021/11/16 06:55:00;;;;;;;16.40;8.13;;;;;;;16.80;40.30;103372.96;1608931;88;21052;-87
2021/11/16 06:57:28;;;;;;;21.65;11.12;;;;;;;17.77;39.94;103384.78;1554376;92;21171;-88
2021/11/16 06:59:54;;;;;;;22.45;9.73;;;;;;;18.54;39.09;103389.07;1554270;89;21141;-88
2021/11/16 07:02:25;;;;;;;13.72;6.67;;;;;;;19.32;38.07;103376.45;1599591;89;21085;-88
2021/11/16 07:04:52;;;;;;;6.83;4.05;;;;;;;20.07;35.47;103366.00;1599718;89;21100;-89
2021/11/16 07:07:18;;;;;;;9.28;4.20;;;;;;;20.06;32.71;103364.31;1599948;89;21006;-90
2021/11/16 07:09:45;;;;;;;6.75;4.00;;;;;;;19.88;32.71;103373.69;1599643;89;21159;-90
2021/11/16 07:12:19;;;;;;;7.10;3.55;;;;;;;19.72;32.00;103370.77;1599444;89;21050;-90
2021/11/16 07:14:46;;;;;;;5.85;3.33;;;;;;;19.36;31.58;103359.84;1599139;89;21077;-90
2021/11/16 07:17:15;;;;;;;5.40;3.33;;;;;;;18.86;31.54;103368.08;1598875;89;21109;-90
2021/11/16 07:19:55;;;;;;;8.80;3.62;;;;;;;19.18;32.04;103370.52;1599258;89;21100;-90
2021/11/16 07:22:26;;;;;;;5.20;3.33;;;;;;;19.03;30.12;103375.20;1631333;86;21189;-89
2021/11/16 07:27:40;;;;;;;6.90;3.05;;;;;;;18.24;30.26;103367.48;1568796;91;21076;-88
2021/11/16 07:30:12;;;;;;;5.28;3.15;;;;;;;17.95;30.51;103361.17;1569352;91;21711;-88
2021/11/16 07:32:51;;;;;;;7.03;3.62;;;;;;;17.42;29.96;103360.27;1470554;97;21014;-88
2021/11/16 07:35:27;;;;;;;6.42;3.83;;;;;;;17.32;30.66;103381.30;1470470;97;21209;-88
2021/11/16 07:38:04;;;;;;;7.40;3.45;;;;;;;17.46;29.90;103369.63;1470364;97;21043;-87
2021/11/16 07:40:33;;;;;;;6.67;3.85;;;;;;;17.36;30.38;103363.95;1460594;98;21172;-88
2021/11/16 07:43:12;;;;;;;7.05;3.30;;;;;;;17.38;29.96;103364.02;1460472;98;21632;-88
2021/11/16 07:45:48;;;;;;;5.70;3.62;;;;;;;17.24;29.92;103364.78;1461145;98;21506;-88
2021/11/16 07:48:20;;;;;;;9.35;4.17;;;;;;;17.05;29.66;103365.94;1458973;98;21519;-87
2021/11/16 07:51:00;;;;;;;6.25;3.58;;;;;;;16.59;29.79;103372.94;1425472;99;21081;-88
2021/11/16 07:53:39;;;;;;;6.67;3.98;;;;;;;16.49;29.69;103363.12;1444336;99;21029;-88
2021/11/16 07:56:13;;;;;;;4.35;3.20;;;;;;;16.13;29.94;103368.95;1444394;99;21107;-87
2021/11/16 07:58:51;;;;;;;5.65;3.22;;;;;;;16.41;30.60;103377.05;1444271;99;21040;-88
2021/11/16 08:01:25;;;;;;;5.50;3.22;;;;;;;17.09;29.61;103375.83;1443936;99;21108;-88
2021/11/16 08:03:51;;;;;;;4.85;2.67;;;;;;;17.20;29.42;103357.30;1444097;99;21746;-88
2021/11/16 08:06:27;;;;;;;4.15;2.80;;;;;;;16.98;29.04;103369.32;1443993;99;21119;-87
2021/11/16 08:08:54;;;;;;;7.05;3.20;;;;;;;17.23;29.54;103356.83;1443915;99;21156;-87
2021/11/16 08:14:06;;;;;;;4.03;2.77;;;;;;;17.46;29.34;103354.09;1372131;104;21171;-88
2021/11/16 08:16:30;;;;;;;6.15;3.52;;;;;;;17.56;28.54;103361.69;1369638;104;21207;-88
2021/11/16 08:19:10;;;;;;;5.62;3.52;;;;;;;17.16;28.26;103358.85;1358415;104;21040;-88
2021/11/16 08:21:42;;;;;;;6.08;3.25;;;;;;;17.02;28.53;103348.70;1364328;105;21151;-88
2021/11/16 08:24:15;;;;;;;8.33;4.22;;;;;;;14.33;29.46;103356.09;1373655;103;22415;-88
2021/11/16 08:26:49;;;;;;;8.40;4.12;;;;;;;11.71;32.25;103353.19;1368198;104;21308;-87
2021/11/16 08:29:23;;;;;;;9.48;3.90;;;;;;;10.01;34.65;103350.34;1390883;100;21085;-88
2021/11/16 08:32:06;;;;;;;8.80;3.42;;;;;;;8.33;36.99;103360.42;1404084;101;21156;-88
2021/11/16 08:34:32;;;;;;;8.55;2.70;;;;;;;7.34;39.06;103361.75;1402264;102;21185;-87
2021/11/16 08:36:58;;;;;;;9.05;3.85;;;;;;;6.49;40.18;103353.50;1432970;99;21172;-87
2021/11/16 08:39:43;;;;;;;9.90;3.37;;;;;;;5.65;42.19;103348.98;1437051;99;21155;-87
2021/11/16 08:42:29;;;;;;;9.78;4.03;;;;;;;5.21;43.82;103345.03;1437154;99;21694;-88
2021/11/16 08:45:03;;;;;;;7.03;2.70;;;;;;;4.66;44.86;103338.05;1437269;99;21154;-87
2021/11/16 08:47:38;;;;;;;10.50;3.27;;;;;;;4.24;45.87;103337.79;1437002;99;21176;-87
2021/11/16 08:50:09;;;;;;;6.20;2.60;;;;;;;4.00;47.23;103346.32;1388326;101;21899;-87
2021/11/16 08:52:35;;;;;;;7.40;3.40;;;;;;;3.76;47.74;103339.69;1378013;102;21348;-87
2021/11/16 08:55:09;;;;;;;9.58;2.85;;;;;;;3.57;49.20;103337.95;1372902;102;21364;-87
2021/11/16 08:57:36;;;;;;;6.03;2.58;;;;;;;3.50;50.54;103330.66;1347012;105;21149;-87
2021/11/16 09:00:25;;;;;;;7.92;2.95;;;;;;;3.43;50.50;103331.73;1346637;105;21212;-87
2021/11/16 09:03:09;;;;;;;5.37;2.40;;;;;;;3.28;51.24;103329.19;1346821;105;21137;-87
2021/11/16 09:05:44;;;;;;;5.28;2.45;;;;;;;3.06;52.20;103311.22;1352894;104;22054;-88
2021/11/16 09:08:31;;;;;;;7.62;3.05;;;;;;;2.96;52.33;103310.38;1324150;108;21124;-87
2021/11/16 09:11:04;;;;;;;9.38;3.40;;;;;;;2.78;53.17;103307.59;1363751;102;21180;-87
2021/11/16 09:13:33;;;;;;;13.43;3.95;;;;;;;2.69;53.97;103295.96;1415879;100;21298;-87
2021/11/16 09:16:09;;;;;;;16.52;3.85;;;;;;;2.67;55.92;103289.09;1416182;100;21107;-87
2021/11/16 09:18:43;;;;;;;9.85;3.40;;;;;;;2.64;56.88;103290.70;1416232;100;22054;-87
2021/11/16 09:21:13;;;;;;;15.25;4.22;;;;;;;2.63;56.75;103289.03;1416238;100;21085;-87
2021/11/16 09:23:50;;;;;;;10.32;4.05;;;;;;;2.57;57.30;103287.77;1416336;100;21677;-87
2021/11/16 09:26:36;;;;;;;15.13;4.35;;;;;;;2.53;58.00;103277.06;1415870;100;21062;-86
2021/11/16 09:29:09;;;;;;;13.88;4.20;;;;;;;2.55;60.24;103276.91;1392759;102;21153;-87
2021/11/16 09:31:52;;;;;;;11.12;3.77;;;;;;;2.58;62.06;103281.45;1393636;102;21149;-87
2021/11/16 09:34:30;;;;;;;10.20;3.67;;;;;;;2.50;62.09;103271.53;1379834;101;21811;-86
2021/11/16 09:37:01;;;;;;;13.38;3.83;;;;;;;2.48;62.94;103259.34;1380439;103;21176;-87
2021/11/16 09:39:49;;;;;;;14.45;4.92;;;;;;;2.51;64.71;103265.70;1378708;104;21158;-86
2021/11/16 09:42:29;;;;;;;10.88;3.90;;;;;;;2.47;65.25;103267.81;1378606;104;21661;-87
2021/11/16 09:45:04;;;;;;;17.15;4.20;;;;;;;2.43;66.25;103253.59;1378596;102;21749;-89
2021/11/16 09:47:33;;;;;;;13.60;4.08;;;;;;;2.42;68.10;103258.08;1388668;102;21529;-91
2021/11/16 09:50:04;;;;;;;8.85;3.70;;;;;;;2.42;67.74;103255.91;1416717;100;21634;-87
2021/11/16 09:52:41;;;;;;;13.75;4.22;;;;;;;2.47;69.83;103252.31;1379892;103;21208;-87
2021/11/16 09:55:20;;;;;;;11.85;4.10;;;;;;;2.48;67.61;103248.69;1380184;103;21221;-88
2021/11/16 09:57:54;;;;;;;33.53;12.03;;;;;;;2.53;68.48;103250.45;1380728;102;21230;-88
2021/11/16 10:00:34;;;;;;;34.00;9.30;;;;;;;2.59;68.26;103245.89;1380932;103;21110;-88
2021/11/16 10:03:05;;;;;;;12.23;3.55;;;;;;;2.67;67.52;103246.00;1381012;103;21056;-88
2021/11/16 10:05:39;;;;;;;11.28;3.83;;;;;;;2.73;66.04;103240.60;1389032;103;21129;-88
2021/11/16 10:08:07;;;;;;;7.62;2.87;;;;;;;2.78;66.43;103238.86;1400636;98;21325;-87
2021/11/16 10:10:39;;;;;;;6.62;2.20;;;;;;;2.77;65.36;103235.86;1443630;98;21250;-87
2021/11/16 10:13:15;;;;;;;5.55;2.37;;;;;;;2.76;64.61;103227.00;1445559;99;21553;-88
2021/11/16 10:15:46;;;;;;;6.78;2.80;;;;;;;2.76;64.32;103233.66;1463183;98;21155;-86
2021/11/16 10:18:15;;;;;;;5.10;2.17;;;;;;;2.73;63.42;103217.47;1463317;98;21090;-87
2021/11/16 10:20:43;;;;;;;5.50;2.55;;;;;;;2.71;62.21;103215.47;1463050;98;21212;-87
2021/11/16 10:23:14;;;;;;;4.95;2.20;;;;;;;2.68;62.03;103207.77;1463026;98;21807;-87
2021/11/16 10:25:51;;;;;;;5.97;2.67;;;;;;;2.69;62.63;103206.77;1462952;97;21209;-87
2021/11/16 10:28:18;;;;;;;8.73;2.22;;;;;;;2.68;62.94;103200.27;1436911;99;21093;-87
2021/11/16 10:30:45;;;;;;;8.43;3.42;;;;;;;2.69;63.01;103197.95;1437964;99;21333;-88
2021/11/16 10:33:21;;;;;;;5.22;2.00;;;;;;;2.73;62.88;103198.84;1437977;99;21606;-88
2021/11/16 10:36:13;;;;;;;7.58;2.00;;;;;;;2.76;63.40;103192.88;1438156;99;21389;-88
2021/11/16 10:38:46;;;;;;;5.45;2.27;;;;;;;2.72;61.17;103193.17;1437996;99;21092;-89
2021/11/16 10:41:17;;;;;;;4.58;2.40;;;;;;;2.76;62.83;103192.88;1438163;99;21536;-89
2021/11/16 10:43:50;;;;;;;5.65;1.77;;;;;;;2.71;61.73;103195.50;1438438;99;21104;-88
2021/11/16 10:46:19;;;;;;;4.08;1.67;;;;;;;2.69;61.21;103178.82;1424632;99;21135;-89
2021/11/16 10:48:48;;;;;;;5.55;1.70;;;;;;;2.73;61.48;103179.36;1437994;99;22071;-88
2021/11/16 10:51:16;;;;;;;2.72;1.60;;;;;;;2.71;61.62;103179.52;1409945;101;21087;-88
2021/11/16 10:53:52;;;;;;;4.80;1.72;;;;;;;2.68;62.82;103177.15;1409272;101;21149;-88
2021/11/16 10:56:22;;;;;;;5.45;2.02;;;;;;;2.75;62.39;103177.91;1406994;101;21094;-88
2021/11/16 10:58:50;;;;;;;5.80;2.12;;;;;;;2.80;62.70;103172.50;1401466;102;21145;-89
2021/11/16 11:01:20;;;;;;;3.80;1.85;;;;;;;2.80;62.49;103168.50;1396295;102;21194;-88
2021/11/16 11:03:51;;;;;;;4.95;2.02;;;;;;;2.82;62.17;103159.02;1399030;98;21272;-89
2021/11/16 11:06:28;;;;;;;3.62;1.65;;;;;;;2.81;61.74;103160.02;1470297;97;21218;-89
2021/11/16 11:08:58;;;;;;;4.25;2.08;;;;;;;2.81;62.33;103153.36;1470889;97;21653;-89
2021/11/16 11:11:41;;;;;;;4.95;2.02;;;;;;;2.79;62.38;103150.83;1465328;97;21110;-88
2021/11/16 11:14:18;;;;;;;5.53;1.98;;;;;;;2.75;62.25;103152.11;1419569;101;21252;-88
2021/11/16 11:17:04;;;;;;;2.42;1.55;;;;;;;2.72;61.76;103143.92;1397274;101;21189;-89
2021/11/16 11:19:42;;;;;;;4.83;1.92;;;;;;;2.70;61.50;103137.89;1419794;101;21124;-88
2021/11/16 11:22:23;;;;;;;7.15;2.10;;;;;;;2.75;62.41;103133.97;1397460;102;21177;-87
2021/11/16 11:27:38;;;;;;;5.65;1.85;;;;;;;2.75;61.94;103129.98;1374990;103;21170;-88
2021/11/16 11:30:09;;;;;;;3.05;1.62;;;;;;;2.76;62.24;103128.48;1375251;103;21225;-87
2021/11/16 11:32:38;;;;;;;5.85;2.17;;;;;;;2.75;62.37;103119.33;1329153;108;21716;-88
2021/11/16 11:35:15;;;;;;;4.50;1.60;;;;;;;2.76;62.42;103124.99;1328935;106;21180;-87
2021/11/16 11:37:48;;;;;;;6.83;1.90;;;;;;;2.77;62.52;103124.86;1329029;108;21731;-88
2021/11/16 11:40:18;;;;;;;;;;;;;;;2.81;61.86;103117.41;1331047;108;22035;-87
2021/11/16 11:43:06;;;;;;;5.40;1.98;;;;;;;2.79;61.98;103123.37;1336541;106;20266;-87
2021/11/16 11:45:39;;;;;;;3.90;1.57;;;;;;;2.76;61.62;103112.51;1332297;106;21207;-87
2021/11/16 11:48:17;;;;;;;3.60;1.60;;;;;;;2.73;60.88;103101.66;1315647;108;21222;-88
2021/11/16 11:50:45;;;;;;;7.05;2.00;;;;;;;2.77;61.54;103105.39;1327345;106;21496;-87